Time;durP1;ratioP1;P1;durP2;ratioP2;P2;SDS_P1;SDS_P2;PMS_P1;PMS_P2;Temp;Humidity;BMP_temperature;BMP_pressure;BME280_temperature;BME280_humidity;BME280_pressure;Samples;Min_cycle;Max_cycle;Signal;HPM_P1;HPM_P2
2021/06/12 00:01:43;;;;;;;11.55;7.38;;;15.80;99.90;;;;;;5011198;28;20471;-81
2021/06/12 00:04:11;;;;;;;9.55;7.15;;;15.70;99.90;;;;;;5009309;28;20057;-79
2021/06/12 00:06:37;;;;;;;10.18;6.60;;;15.70;99.90;;;;;;5009463;28;20467;-79
2021/06/12 00:09:04;;;;;;;10.02;7.38;;;15.70;99.90;;;;;;5009586;28;20045;-79
2021/06/12 00:11:30;;;;;;;8.23;6.72;;;15.70;99.90;;;;;;5010889;28;20025;-79
2021/06/12 00:13:55;;;;;;;10.98;6.65;;;15.70;99.90;;;;;;5011213;28;20072;-79
2021/06/12 00:16:21;;;;;;;7.25;5.88;;;15.70;99.90;;;;;;5024029;28;20025;-80
2021/06/12 00:18:46;;;;;;;7.65;6.05;;;15.70;99.90;;;;;;5015196;28;20108;-80
2021/06/12 00:21:12;;;;;;;12.98;6.60;;;15.70;99.90;;;;;;5014883;28;20029;-80
2021/06/12 00:23:38;;;;;;;9.95;6.40;;;15.60;99.90;;;;;;5013329;28;20144;-80
2021/06/12 00:26:03;;;;;;;6.78;6.03;;;15.70;99.90;;;;;;5013577;28;20034;-80
2021/06/12 00:28:29;;;;;;;9.57;5.72;;;15.70;99.90;;;;;;5014467;28;20025;-80
2021/06/12 00:30:54;;;;;;;9.18;5.88;;;15.60;99.90;;;;;;5014467;28;20371;-80
2021/06/12 00:33:20;;;;;;;6.38;5.75;;;15.70;99.90;;;;;;5014570;28;20499;-80
2021/06/12 00:35:46;;;;;;;6.70;5.95;;;15.70;99.90;;;;;;5013365;28;20026;-80
2021/06/12 00:38:12;;;;;;;6.43;5.53;;;15.60;99.90;;;;;;5014364;28;20026;-80
2021/06/12 00:40:37;;;;;;;8.52;5.70;;;15.60;99.90;;;;;;5014628;28;20018;-80
2021/06/12 00:43:04;;;;;;;7.03;5.78;;;15.60;99.90;;;;;;5014546;28;20155;-80
2021/06/12 00:45:31;;;;;;;7.38;6.22;;;15.50;99.90;;;;;;5014271;28;20481;-80
2021/06/12 00:47:57;;;;;;;7.05;5.38;;;15.50;99.90;;;;;;5014524;28;20061;-79
2021/06/12 00:50:25;;;;;;;8.25;5.90;;;15.50;99.90;;;;;;5014336;28;20033;-80
2021/06/12 00:52:51;;;;;;;7.35;5.57;;;15.50;99.90;;;;;;5000995;28;20037;-79
2021/06/12 00:55:17;;;;;;;6.82;5.68;;;15.50;99.90;;;;;;5014341;28;20112;-80
2021/06/12 00:57:44;;;;;;;6.90;5.57;;;15.40;99.90;;;;;;5014208;28;20056;-80
2021/06/12 01:00:16;;;;;;;8.13;6.10;;;15.40;99.90;;;;;;5014317;28;20117;-79
2021/06/12 01:02:42;;;;;;;9.32;6.22;;;15.40;99.90;;;;;;5014539;28;20458;-79
2021/06/12 01:05:10;;;;;;;9.07;5.90;;;15.40;99.90;;;;;;5014417;28;20080;-79
2021/06/12 01:07:36;;;;;;;6.72;6.00;;;15.40;99.90;;;;;;5014372;28;20026;-80
2021/06/12 01:10:04;;;;;;;6.63;5.63;;;15.30;99.90;;;;;;5014089;28;20030;-79
2021/06/12 01:12:42;;;;;;;6.50;5.40;;;15.30;99.90;;;;;;5013100;28;20032;-80
2021/06/12 01:15:10;;;;;;;10.63;6.15;;;15.30;99.90;;;;;;5014162;28;20471;-79
2021/06/12 01:17:56;;;;;;;7.85;6.05;;;15.30;99.90;;;;;;5014071;28;20033;-79
2021/06/12 01:20:55;;;;;;;9.88;5.45;;;15.30;99.90;;;;;;5013527;28;20368;-80
2021/06/12 01:23:59;;;;;;;7.95;5.10;;;15.30;99.90;;;;;;5014071;28;20037;-80
2021/06/12 01:26:40;;;;;;;6.65;5.88;;;15.20;99.90;;;;;;5013440;28;20022;-80
2021/06/12 01:29:43;;;;;;;7.90;5.50;;;15.20;99.90;;;;;;5012697;28;20483;-80
2021/06/12 01:32:11;;;;;;;6.63;5.65;;;15.20;99.90;;;;;;5013294;28;20030;-80
2021/06/12 01:34:39;;;;;;;7.85;5.90;;;15.20;99.90;;;;;;5013791;28;20103;-80
2021/06/12 01:37:08;;;;;;;6.80;5.35;;;15.10;99.90;;;;;;5013301;28;20026;-80
2021/06/12 01:39:36;;;;;;;8.32;6.00;;;15.10;99.90;;;;;;5013669;28;20032;-79
2021/06/12 01:42:03;;;;;;;7.28;6.10;;;15.10;99.90;;;;;;5013497;28;20025;-80
2021/06/12 01:44:32;;;;;;;6.38;5.78;;;15.10;99.90;;;;;;5012415;28;20041;-80
2021/06/12 01:46:58;;;;;;;9.93;6.20;;;15.10;99.90;;;;;;5013746;28;20045;-80
2021/06/12 01:49:24;;;;;;;6.93;5.80;;;15.00;99.90;;;;;;5013210;28;20053;-80
2021/06/12 01:51:51;;;;;;;7.30;6.13;;;15.00;99.90;;;;;;5013331;28;20099;-79
2021/06/12 01:54:18;;;;;;;6.15;5.55;;;15.00;99.90;;;;;;5010256;28;20041;-80
2021/06/12 01:56:45;;;;;;;6.53;5.50;;;15.00;99.90;;;;;;5011876;28;20104;-80
2021/06/12 01:59:11;;;;;;;8.27;5.65;;;14.90;99.90;;;;;;5012633;28;20029;-80
2021/06/12 02:01:39;;;;;;;9.02;5.90;;;14.90;99.90;;;;;;5012783;28;20018;-79
2021/06/12 02:04:06;;;;;;;6.80;5.57;;;14.90;99.90;;;;;;5012561;28;20026;-80
2021/06/12 02:06:32;;;;;;;7.80;5.82;;;14.90;99.90;;;;;;5013125;28;20026;-80
2021/06/12 02:08:59;;;;;;;6.85;5.78;;;14.90;99.90;;;;;;5013068;28;20053;-80
2021/06/12 02:11:26;;;;;;;7.68;5.40;;;14.90;99.90;;;;;;5013097;28;20030;-80
2021/06/12 02:13:52;;;;;;;6.22;5.63;;;14.90;99.90;;;;;;5013366;28;20028;-80
2021/06/12 02:16:22;;;;;;;6.47;5.85;;;14.80;99.90;;;;;;5012773;28;20026;-80
2021/06/12 02:18:50;;;;;;;8.45;6.07;;;14.80;99.90;;;;;;5012902;28;20026;-80
2021/06/12 02:21:20;;;;;;;6.53;5.22;;;14.80;99.90;;;;;;5012789;28;20033;-80
2021/06/12 02:23:49;;;;;;;7.10;6.07;;;14.80;99.90;;;;;;5011830;28;20026;-80
2021/06/12 02:26:15;;;;;;;6.15;5.55;;;14.80;99.90;;;;;;5012398;28;20108;-80
2021/06/12 02:28:43;;;;;;;11.52;6.80;;;14.80;99.90;;;;;;5012861;28;20026;-79
2021/06/12 02:31:17;;;;;;;7.93;5.93;;;14.70;99.90;;;;;;5011259;28;20545;-80
2021/06/12 02:33:45;;;;;;;11.77;6.05;;;14.70;99.90;;;;;;5011169;28;20054;-80
2021/06/12 02:36:11;;;;;;;9.20;5.93;;;14.70;99.90;;;;;;5012433;28;20072;-80
2021/06/12 02:38:37;;;;;;;7.30;5.72;;;14.70;99.90;;;;;;5012462;28;20018;-79
2021/06/12 02:41:03;;;;;;;8.68;6.28;;;14.70;99.90;;;;;;5011898;28;20120;-80
2021/06/12 02:43:29;;;;;;;8.55;5.95;;;14.60;99.90;;;;;;5012125;28;20712;-79
2021/06/12 02:45:55;;;;;;;9.93;5.80;;;14.60;99.90;;;;;;5012334;28;20048;-79
2021/06/12 02:48:25;;;;;;;8.82;6.13;;;14.60;99.90;;;;;;5011974;28;20030;-80
2021/06/12 02:50:51;;;;;;;8.50;5.68;;;14.60;99.90;;;;;;5010962;28;20034;-79
2021/06/12 02:53:21;;;;;;;7.35;5.80;;;14.60;99.90;;;;;;5011569;28;20157;-80
2021/06/12 02:55:50;;;;;;;6.63;5.93;;;14.60;99.90;;;;;;5010785;28;20802;-80
2021/06/12 02:58:21;;;;;;;6.93;5.88;;;14.60;99.90;;;;;;5011591;28;20037;-80
2021/06/12 03:00:49;;;;;;;8.25;5.78;;;14.50;99.90;;;;;;4997999;28;20044;-80
2021/06/12 03:03:15;;;;;;;7.63;5.90;;;14.60;99.90;;;;;;5011466;28;20030;-79
2021/06/12 03:05:46;;;;;;;7.25;5.63;;;14.60;99.90;;;;;;5011479;28;20018;-80
2021/06/12 03:08:15;;;;;;;7.60;5.88;;;14.50;99.90;;;;;;5011821;28;20029;-80
2021/06/12 03:10:41;;;;;;;10.35;5.65;;;14.60;99.90;;;;;;5011658;28;20467;-80
2021/06/12 03:13:13;;;;;;;7.03;6.20;;;14.60;99.90;;;;;;5011906;28;20037;-79
2021/06/12 03:15:41;;;;;;;7.35;5.82;;;14.60;99.90;;;;;;5011588;28;20095;-79
2021/06/12 03:18:06;;;;;;;7.53;6.05;;;14.60;99.90;;;;;;5011490;28;20032;-80
2021/06/12 03:20:32;;;;;;;10.43;6.18;;;14.60;99.90;;;;;;5011449;28;20030;-79
2021/06/12 03:23:02;;;;;;;7.32;6.20;;;14.60;99.90;;;;;;5011656;28;20026;-80
2021/06/12 03:25:28;;;;;;;7.32;5.88;;;14.60;99.90;;;;;;5011842;28;20030;-79
2021/06/12 03:27:55;;;;;;;7.75;5.60;;;14.60;99.90;;;;;;5011802;28;20419;-80
2021/06/12 03:30:23;;;;;;;7.55;6.05;;;14.50;99.90;;;;;;5011410;28;20037;-80
2021/06/12 03:32:49;;;;;;;7.70;5.80;;;14.60;99.90;;;;;;5011036;28;20100;-80
2021/06/12 03:35:15;;;;;;;8.27;6.05;;;14.60;99.90;;;;;;5011560;28;20034;-80
2021/06/12 03:37:41;;;;;;;7.20;5.90;;;14.50;99.90;;;;;;5011080;28;20036;-80
2021/06/12 03:40:09;;;;;;;8.88;6.45;;;14.50;99.90;;;;;;5011279;28;20109;-80
2021/06/12 03:42:35;;;;;;;10.40;6.50;;;14.60;99.90;;;;;;5011613;28;20443;-80
2021/06/12 03:45:05;;;;;;;6.70;5.97;;;14.60;99.90;;;;;;5010056;28;20459;-80
2021/06/12 03:47:32;;;;;;;12.00;6.75;;;14.60;99.90;;;;;;5011055;28;20395;-80
2021/06/12 03:49:57;;;;;;;6.47;5.78;;;14.60;99.90;;;;;;5011111;28;20026;-80
2021/06/12 03:52:27;;;;;;;6.95;6.25;;;14.60;99.90;;;;;;5010415;28;20028;-80
2021/06/12 03:54:55;;;;;;;8.05;6.25;;;14.60;99.90;;;;;;5010894;28;20088;-80
2021/06/12 03:57:21;;;;;;;7.95;5.95;;;14.70;99.90;;;;;;5010811;28;20022;-80
2021/06/12 03:59:47;;;;;;;9.85;6.38;;;14.80;99.90;;;;;;5010765;28;20117;-80
2021/06/12 04:02:15;;;;;;;7.60;5.10;;;14.90;99.90;;;;;;5009506;28;20021;-79
2021/06/12 04:04:43;;;;;;;7.05;5.97;;;14.90;99.90;;;;;;5011440;28;20053;-80
2021/06/12 04:07:08;;;;;;;6.45;5.80;;;15.00;99.90;;;;;;5011215;28;20022;-79
2021/06/12 04:09:34;;;;;;;7.53;5.68;;;15.00;99.90;;;;;;5011613;28;20026;-80
2021/06/12 04:12:01;;;;;;;6.97;6.28;;;15.00;99.90;;;;;;5011166;28;20057;-79
2021/06/12 04:14:26;;;;;;;7.97;6.07;;;15.00;99.90;;;;;;5011021;28;20026;-80
2021/06/12 04:16:52;;;;;;;11.82;6.47;;;15.00;99.90;;;;;;5010811;28;20030;-79
2021/06/12 04:19:18;;;;;;;9.57;6.22;;;15.00;99.90;;;;;;5010375;28;20061;-80
2021/06/12 04:21:44;;;;;;;6.78;6.07;;;15.10;99.90;;;;;;5010559;28;20112;-79
2021/06/12 04:24:09;;;;;;;8.98;6.60;;;15.10;99.90;;;;;;5010639;28;20097;-80
2021/06/12 04:26:35;;;;;;;7.60;6.25;;;15.10;99.90;;;;;;5010990;28;20038;-80
2021/06/12 04:29:01;;;;;;;6.60;5.47;;;15.20;99.90;;;;;;5010981;28;20371;-81
2021/06/12 04:31:26;;;;;;;8.02;6.15;;;15.20;99.90;;;;;;5010491;28;20033;-76
2021/06/12 04:33:52;;;;;;;8.55;5.15;;;15.30;99.90;;;;;;5013183;28;20041;-75
2021/06/12 04:36:18;;;;;;;7.30;5.38;;;15.40;99.90;;;;;;5013281;28;20423;-75
2021/06/12 04:38:44;;;;;;;7.05;5.40;;;15.50;99.90;;;;;;5013589;28;20364;-75
2021/06/12 04:41:10;;;;;;;6.30;5.70;;;15.60;99.90;;;;;;5012010;28;20048;-75
2021/06/12 04:43:35;;;;;;;7.72;5.50;;;15.70;99.90;;;;;;5013948;28;20097;-77
2021/06/12 04:46:01;;;;;;;7.75;5.82;;;15.70;99.90;;;;;;5011774;28;20336;-75
2021/06/12 04:48:26;;;;;;;9.45;5.75;;;15.80;99.90;;;;;;5012985;28;20022;-75
2021/06/12 04:50:52;;;;;;;6.45;5.60;;;15.90;99.90;;;;;;5013268;28;20104;-75
2021/06/12 04:53:18;;;;;;;7.43;5.35;;;16.00;99.90;;;;;;5013261;28;20038;-75
2021/06/12 04:55:43;;;;;;;9.30;5.53;;;16.10;99.90;;;;;;5013277;28;20052;-75
2021/06/12 04:58:10;;;;;;;6.05;5.20;;;16.30;99.90;;;;;;5013171;28;20072;-74
2021/06/12 05:00:37;;;;;;;6.13;5.53;;;16.40;99.90;;;;;;5013294;28;20022;-75
2021/06/12 05:03:04;;;;;;;5.85;4.90;;;16.50;99.90;;;;;;5014316;28;20347;-72
2021/06/12 05:05:30;;;;;;;5.85;5.25;;;16.70;99.90;;;;;;5016610;28;20105;-69
2021/06/12 05:07:55;;;;;;;5.90;5.20;;;16.90;99.90;;;;;;5016366;28;20101;-75
2021/06/12 05:10:21;;;;;;;9.50;4.93;;;17.10;99.90;;;;;;5016272;28;20025;-75
2021/06/12 05:12:47;;;;;;;6.85;5.00;;;17.30;99.90;;;;;;5016435;28;20116;-75
2021/06/12 05:15:13;;;;;;;6.68;5.40;;;17.40;99.90;;;;;;5016778;28;20128;-75
2021/06/12 05:17:41;;;;;;;6.78;5.40;;;17.50;99.90;;;;;;5016435;28;20061;-75
2021/06/12 05:20:09;;;;;;;6.75;5.25;;;17.60;99.90;;;;;;5016545;28;20052;-75
2021/06/12 05:22:34;;;;;;;6.28;5.22;;;17.60;99.90;;;;;;5016268;28;20029;-75
2021/06/12 05:25:00;;;;;;;7.32;5.28;;;17.70;99.90;;;;;;5016381;28;20018;-75
2021/06/12 05:27:26;;;;;;;5.88;5.05;;;17.80;99.90;;;;;;5016426;28;20030;-75
2021/06/12 05:29:52;;;;;;;8.80;5.28;;;17.90;99.90;;;;;;5016203;28;20030;-75
2021/06/12 05:32:18;;;;;;;6.82;4.97;;;18.00;99.90;;;;;;5015986;28;20053;-75
2021/06/12 05:34:44;;;;;;;8.05;5.40;;;18.00;99.90;;;;;;5016170;28;20462;-75
2021/06/12 05:37:10;;;;;;;8.75;5.10;;;18.10;99.90;;;;;;5014687;28;20033;-75
2021/06/12 05:39:36;;;;;;;6.05;5.15;;;18.20;99.90;;;;;;5015983;28;20037;-76
2021/06/12 05:42:02;;;;;;;6.13;5.38;;;18.30;99.90;;;;;;5016317;28;20030;-75
2021/06/12 05:44:27;;;;;;;6.10;4.53;;;18.40;99.90;;;;;;5028634;22;20057;-78
2021/06/12 05:46:53;;;;;;;7.28;5.13;;;18.60;99.90;;;;;;5015791;28;20093;-77
2021/06/12 05:49:20;;;;;;;6.25;4.75;;;18.80;99.90;;;;;;5017029;28;20018;-77
2021/06/12 05:51:46;;;;;;;5.50;4.78;;;19.00;99.90;;;;;;5014932;28;20022;-77
2021/06/12 05:54:12;;;;;;;5.32;4.55;;;19.10;99.90;;;;;;5016659;28;20030;-77
2021/06/12 05:56:38;;;;;;;7.57;4.50;;;19.30;99.90;;;;;;5031395;28;20030;-78
2021/06/12 05:59:04;;;;;;;7.65;4.35;;;19.40;99.90;;;;;;5015572;28;20025;-79
2021/06/12 06:01:30;;;;;;;5.22;4.72;;;19.50;99.90;;;;;;5013912;28;20030;-81
2021/06/12 06:03:57;;;;;;;5.40;4.60;;;19.60;99.90;;;;;;5011042;28;20072;-81
2021/06/12 06:06:22;;;;;;;9.07;4.50;;;19.70;99.90;;;;;;5020004;28;20111;-80
2021/06/12 06:08:48;;;;;;;6.05;4.68;;;19.80;99.90;;;;;;5026441;28;20108;-81
2021/06/12 06:11:14;;;;;;;6.70;4.75;;;19.90;99.90;;;;;;5028101;28;20026;-81
2021/06/12 06:13:41;;;;;;;4.85;4.35;;;20.00;99.90;;;;;;5027822;28;20029;-81
2021/06/12 06:16:07;;;;;;;6.93;4.35;;;20.10;99.90;;;;;;5031644;28;20021;-76
2021/06/12 06:18:35;;;;;;;6.03;4.80;;;20.30;99.90;;;;;;5031585;28;20071;-81
2021/06/12 06:21:01;;;;;;;7.65;4.70;;;20.40;99.90;;;;;;5027444;28;20136;-81
2021/06/12 06:23:26;;;;;;;7.72;4.75;;;20.60;99.90;;;;;;5025058;28;20246;-82
2021/06/12 06:25:52;;;;;;;5.22;4.28;;;20.80;99.90;;;;;;5026133;28;20100;-82
2021/06/12 06:28:18;;;;;;;5.15;4.65;;;20.80;99.90;;;;;;5027545;28;20413;-82
2021/06/12 06:30:44;;;;;;;4.78;4.28;;;20.90;99.90;;;;;;5026344;28;20135;-82
2021/06/12 06:33:09;;;;;;;4.72;4.28;;;21.10;99.90;;;;;;5026963;28;20041;-82
2021/06/12 06:35:35;;;;;;;6.50;4.40;;;21.20;99.90;;;;;;5027078;28;20029;-82
2021/06/12 06:38:01;;;;;;;5.68;4.72;;;21.30;99.90;;;;;;5025708;28;20370;-82
2021/06/12 06:40:26;;;;;;;6.90;4.32;;;21.30;99.90;;;;;;5024470;28;20036;-82
2021/06/12 06:42:52;;;;;;;5.20;4.50;;;21.30;99.90;;;;;;5025901;28;20037;-82
2021/06/12 06:45:18;;;;;;;5.50;4.55;;;21.50;99.90;;;;;;5026968;28;20056;-82
2021/06/12 06:47:43;;;;;;;7.47;4.55;;;21.60;99.90;;;;;;5025967;28;20034;-82
2021/06/12 06:50:10;;;;;;;5.63;4.75;;;21.70;99.90;;;;;;5026651;28;20080;-82
2021/06/12 06:52:36;;;;;;;5.63;5.03;;;21.70;99.90;;;;;;5017459;28;20060;-81
2021/06/12 06:55:02;;;;;;;4.80;4.30;;;21.80;99.90;;;;;;5025323;28;20038;-81
2021/06/12 06:57:28;;;;;;;6.38;4.90;;;21.80;99.90;;;;;;5028407;28;20025;-81
2021/06/12 06:59:53;;;;;;;7.15;5.28;;;21.90;99.90;;;;;;5026593;28;20513;-81
2021/06/12 07:02:19;;;;;;;5.47;4.90;;;21.80;99.90;;;;;;5023642;28;20022;-82
2021/06/12 07:04:44;;;;;;;7.38;5.72;;;21.80;99.90;;;;;;5008424;28;20526;-82
2021/06/12 07:07:10;;;;;;;6.72;5.05;;;22.00;99.90;;;;;;5008235;28;20026;-82
2021/06/12 07:09:36;;;;;;;6.55;5.07;;;22.00;99.90;;;;;;5008263;28;20037;-82
2021/06/12 07:12:02;;;;;;;6.38;5.22;;;22.10;99.90;;;;;;5008342;28;20041;-82
2021/06/12 07:14:29;;;;;;;6.10;5.32;;;22.10;99.90;;;;;;5022502;28;20122;-82
2021/06/12 07:16:55;;;;;;;6.03;4.88;;;22.10;99.90;;;;;;5008456;28;20033;-82
2021/06/12 07:19:21;;;;;;;7.28;5.43;;;22.10;99.90;;;;;;5011874;28;20034;-78
2021/06/12 07:21:48;;;;;;;6.43;5.00;;;22.10;99.90;;;;;;5013854;28;20079;-79
2021/06/12 07:24:13;;;;;;;5.93;4.78;;;22.20;99.90;;;;;;5013879;28;20018;-79
2021/06/12 07:26:39;;;;;;;5.25;4.30;;;22.30;99.90;;;;;;5013200;28;20037;-78
2021/06/12 07:29:05;;;;;;;6.93;5.00;;;22.40;99.90;;;;;;5014243;28;20447;-78
2021/06/12 07:31:31;;;;;;;6.38;5.13;;;22.60;99.90;;;;;;5014011;28;20037;-79
2021/06/12 07:33:56;;;;;;;5.43;4.90;;;22.50;99.90;;;;;;5013729;28;20030;-78
2021/06/12 07:36:22;;;;;;;8.18;4.85;;;22.60;99.90;;;;;;5013923;28;20033;-78
2021/06/12 07:38:48;;;;;;;5.10;4.57;;;22.50;99.90;;;;;;5013717;28;20053;-78
2021/06/12 07:41:14;;;;;;;5.53;4.55;;;22.60;99.90;;;;;;5014112;28;20037;-78
2021/06/12 07:43:39;;;;;;;5.43;4.60;;;22.80;99.90;;;;;;5012439;28;20030;-78
2021/06/12 07:46:05;;;;;;;5.47;4.65;;;22.80;99.90;;;;;;5013424;28;20387;-78
2021/06/12 07:48:31;;;;;;;5.53;4.72;;;22.90;99.90;;;;;;5012295;28;20100;-78
2021/06/12 07:50:56;;;;;;;8.95;5.28;;;22.90;99.90;;;;;;5013958;28;20026;-76
2021/06/12 07:53:22;;;;;;;5.95;4.80;;;22.90;99.90;;;;;;5013430;28;20034;-76
2021/06/12 07:55:48;;;;;;;5.00;4.50;;;23.00;99.90;;;;;;5013466;28;20467;-76
2021/06/12 07:58:14;;;;;;;5.68;4.60;;;23.00;99.90;;;;;;5013693;28;20057;-76
2021/06/12 08:00:39;;;;;;;7.38;5.07;;;23.10;99.90;;;;;;5013788;28;20058;-76
2021/06/12 08:03:05;;;;;;;5.60;4.95;;;23.10;99.90;;;;;;5013315;28;20490;-76
2021/06/12 08:05:31;;;;;;;5.60;4.80;;;23.10;99.90;;;;;;5013626;28;20459;-76
2021/06/12 08:07:58;;;;;;;5.85;4.80;;;23.10;99.90;;;;;;5013694;28;20101;-80
2021/06/12 08:10:24;;;;;;;6.72;4.63;;;23.20;99.90;;;;;;5010570;28;20076;-76
2021/06/12 08:12:49;;;;;;;5.60;4.70;;;23.40;99.90;;;;;;5009762;28;20453;-82
2021/06/12 08:15:15;;;;;;;4.90;4.40;;;23.50;99.90;;;;;;5007682;28;20053;-81
2021/06/12 08:17:41;;;;;;;7.38;5.00;;;23.60;99.90;;;;;;5007470;28;20030;-82
2021/06/12 08:20:07;;;;;;;10.10;4.75;;;23.70;99.90;;;;;;5007891;28;20171;-82
2021/06/12 08:22:33;;;;;;;6.00;4.53;;;23.80;99.90;;;;;;5009191;28;20022;-82
2021/06/12 08:24:59;;;;;;;6.07;4.60;;;23.90;99.90;;;;;;5011552;28;20026;-79
2021/06/12 08:27:25;;;;;;;6.85;4.72;;;24.10;99.90;;;;;;5013528;28;20018;-78
2021/06/12 08:29:50;;;;;;;5.85;4.82;;;24.00;99.90;;;;;;5028352;28;20136;-78
2021/06/12 08:32:16;;;;;;;7.20;5.13;;;24.10;99.90;;;;;;5011914;28;20029;-78
2021/06/12 08:34:42;;;;;;;5.97;4.75;;;23.90;99.90;;;;;;5013001;28;20481;-79
2021/06/12 08:37:09;;;;;;;5.93;4.78;;;23.70;99.90;;;;;;5013652;28;20055;-79
2021/06/12 08:39:34;;;;;;;6.85;4.80;;;23.70;99.90;;;;;;5017386;28;20370;-79
2021/06/12 08:42:01;;;;;;;7.75;5.10;;;23.70;99.90;;;;;;5015587;28;20116;-77
2021/06/12 08:44:28;;;;;;;6.32;4.65;;;23.80;99.90;;;;;;5016907;28;20591;-77
2021/06/12 08:46:54;;;;;;;6.93;5.03;;;24.00;99.90;;;;;;5015372;28;20025;-77
2021/06/12 08:49:20;;;;;;;8.32;5.20;;;24.20;99.90;;;;;;5016972;28;20022;-77
2021/06/12 08:51:46;;;;;;;6.15;5.15;;;24.40;99.90;;;;;;5016735;28;20064;-77
2021/06/12 08:54:20;;;;;;;8.43;5.05;;;24.50;99.90;;;;;;5016871;28;20088;-77
2021/06/12 08:56:46;;;;;;;7.82;4.68;;;24.70;99.90;;;;;;5016718;28;20022;-77
2021/06/12 08:59:13;;;;;;;7.47;5.05;;;24.90;99.90;;;;;;5016371;28;20155;-77
2021/06/12 09:01:40;;;;;;;5.40;4.60;;;25.00;99.90;;;;;;5031537;28;20037;-77
2021/06/12 09:04:06;;;;;;;8.68;5.22;;;24.90;99.90;;;;;;5016563;28;20033;-77
2021/06/12 09:06:32;;;;;;;5.82;4.50;;;25.00;99.90;;;;;;5016584;28;20025;-77
2021/06/12 09:08:58;;;;;;;5.18;4.57;;;24.90;99.90;;;;;;5016834;28;20399;-77
2021/06/12 09:11:25;;;;;;;5.13;4.60;;;24.90;99.90;;;;;;5016172;28;20080;-76
2021/06/12 09:13:58;;;;;;;8.50;4.93;;;25.00;99.90;;;;;;5017082;28;20026;-77
2021/06/12 09:16:24;;;;;;;6.45;4.80;;;25.00;99.90;;;;;;5016445;28;20045;-77
2021/06/12 09:18:50;;;;;;;10.55;4.65;;;25.00;99.90;;;;;;5016013;28;20098;-76
2021/06/12 09:21:33;;;;;;;8.98;5.05;;;25.00;99.90;;;;;;5016206;28;20021;-76
2021/06/12 09:24:00;;;;;;;6.90;4.68;;;25.00;99.90;;;;;;5031202;28;20104;-77
2021/06/12 09:26:46;;;;;;;5.57;4.60;;;25.20;99.90;;;;;;5031807;28;20390;-76
2021/06/12 09:29:17;;;;;;;5.60;5.00;;;25.20;99.90;;;;;;5016251;28;20104;-76
2021/06/12 09:31:48;;;;;;;6.28;5.10;;;25.10;99.90;;;;;;5015930;28;20026;-77
2021/06/12 09:34:16;;;;;;;7.35;5.07;;;25.10;99.90;;;;;;5031648;28;20091;-79
2021/06/12 09:36:46;;;;;;;7.43;4.88;;;25.10;99.90;;;;;;5015920;28;20057;-79
2021/06/12 09:39:22;;;;;;;7.53;5.28;;;25.00;99.90;;;;;;5016355;28;20512;-79
2021/06/12 09:41:54;;;;;;;8.38;4.75;;;24.90;99.90;;;;;;5030939;28;20033;-79
2021/06/12 09:44:40;;;;;;;5.60;5.10;;;25.00;99.90;;;;;;5015551;28;20041;-80
2021/06/12 09:47:22;;;;;;;8.65;5.65;;;25.20;99.90;;;;;;5015885;28;20030;-79
2021/06/12 09:49:48;;;;;;;5.20;4.32;;;25.40;99.90;;;;;;5014783;28;20435;-78
2021/06/12 09:52:16;;;;;;;6.30;4.53;;;25.70;99.90;;;;;;5015592;28;20049;-79
2021/06/12 09:54:50;;;;;;;5.07;4.57;;;26.00;99.90;;;;;;5015570;28;20029;-79
2021/06/12 09:57:17;;;;;;;;;;;26.00;99.90;;;;;;5012840;28;20022;-83
2021/06/12 09:59:54;;;;;;;4.80;4.30;;;26.20;99.90;;;;;;5010540;28;19941;-82
2021/06/12 10:02:40;;;;;;;7.72;4.53;;;26.30;99.90;;;;;;5012227;28;20069;-82
2021/06/12 10:05:08;;;;;;;5.07;4.07;;;26.60;99.90;;;;;;5012910;28;20109;-82
2021/06/12 10:07:35;;;;;;;7.10;3.55;;;26.60;99.90;;;;;;5011773;28;20041;-82
2021/06/12 10:10:03;;;;;;;5.65;3.40;;;26.60;99.90;;;;;;5011776;28;20352;-82
2021/06/12 10:12:29;;;;;;;6.20;3.90;;;26.80;99.90;;;;;;5012469;28;20096;-82
2021/06/12 10:14:57;;;;;;;4.00;3.55;;;27.10;99.90;;;;;;5011320;28;20030;-82
2021/06/12 10:17:23;;;;;;;5.15;3.53;;;27.30;99.90;;;;;;5010810;28;20095;-82
2021/06/12 10:19:53;;;;;;;5.32;3.35;;;27.50;99.40;;;;;;5011558;28;20029;-82
2021/06/12 10:22:19;;;;;;;3.50;3.00;;;27.70;98.80;;;;;;5013040;28;20052;-82
2021/06/12 10:24:47;;;;;;;6.82;3.35;;;27.90;97.40;;;;;;5013273;28;20018;-82
2021/06/12 10:27:14;;;;;;;4.53;3.08;;;28.20;96.60;;;;;;5012648;28;20488;-79
2021/06/12 10:29:42;;;;;;;3.80;3.10;;;28.30;94.70;;;;;;5015189;28;20029;-80
2021/06/12 10:32:09;;;;;;;4.15;2.83;;;28.30;93.40;;;;;;5014790;28;20360;-79
2021/06/12 10:34:35;;;;;;;3.78;3.03;;;28.20;94.90;;;;;;5015158;28;20451;-80
2021/06/12 10:37:05;;;;;;;3.55;3.25;;;28.20;95.30;;;;;;5014997;28;20100;-80
2021/06/12 10:39:34;;;;;;;4.57;3.17;;;28.30;95.40;;;;;;5014600;28;20479;-79
2021/06/12 10:42:14;;;;;;;5.68;3.55;;;28.50;93.80;;;;;;5012275;28;20029;-82
2021/06/12 10:44:44;;;;;;;7.43;3.20;;;28.40;94.40;;;;;;5012528;28;20092;-82
2021/06/12 10:47:10;;;;;;;5.88;3.00;;;28.60;94.50;;;;;;5011488;28;20033;-82
2021/06/12 10:49:36;;;;;;;5.00;2.72;;;28.90;93.50;;;;;;5010550;28;20022;-83
2021/06/12 10:52:04;;;;;;;4.90;2.80;;;28.60;93.70;;;;;;5008964;28;20105;-83
2021/06/12 10:54:34;;;;;;;5.00;2.75;;;28.90;93.50;;;;;;5008877;28;20435;-83
2021/06/12 10:57:14;;;;;;;3.58;2.80;;;29.10;90.80;;;;;;5008818;28;20041;-82
2021/06/12 10:59:42;;;;;;;3.10;2.80;;;29.10;92.40;;;;;;5007255;28;20069;-83
2021/06/12 11:02:59;;;;;;;5.60;3.05;;;29.10;91.60;;;;;;5008376;28;20422;-83
2021/06/12 11:05:07;;;;;;;6.07;2.70;;;29.10;91.60;;;;;;5006198;28;20084;-83
2021/06/12 11:07:35;;;;;;;4.55;3.00;;;28.80;90.80;;;;;;5009609;28;20018;-82
2021/06/12 11:10:12;;;;;;;4.93;2.83;;;28.30;89.30;;;;;;5007591;28;20062;-83
2021/06/12 11:12:50;;;;;;;5.93;3.00;;;27.80;91.30;;;;;;5023889;28;20463;-82
2021/06/12 11:15:22;;;;;;;4.90;3.00;;;27.60;92.70;;;;;;5008748;28;20511;-83
2021/06/12 11:18:13;;;;;;;5.28;3.50;;;27.40;93.20;;;;;;5008168;28;20041;-82
2021/06/12 11:20:42;;;;;;;3.50;2.90;;;27.10;94.10;;;;;;5008233;28;20030;-83
2021/06/12 11:23:09;;;;;;;5.32;3.00;;;27.00;95.80;;;;;;5008923;28;20025;-82
2021/06/12 11:25:37;;;;;;;11.57;2.90;;;27.30;95.80;;;;;;5023253;28;20034;-83
2021/06/12 11:28:22;;;;;;;4.38;2.80;;;27.50;93.70;;;;;;5008287;28;20467;-81
2021/06/12 11:30:49;;;;;;;5.80;2.90;;;27.90;91.70;;;;;;5008568;28;20129;-83
2021/06/12 11:33:15;;;;;;;3.22;2.88;;;28.10;91.40;;;;;;5008671;28;20058;-83
2021/06/12 11:35:55;;;;;;;6.05;2.90;;;28.30;91.50;;;;;;5008522;28;20496;-83
2021/06/12 11:38:32;;;;;;;5.25;3.20;;;28.50;89.60;;;;;;5008344;28;20933;-83
2021/06/12 11:41:00;;;;;;;3.55;3.00;;;28.60;88.20;;;;;;5008210;28;20462;-82
2021/06/12 11:43:38;;;;;;;9.90;3.83;;;28.70;85.80;;;;;;5008226;28;20034;-83
2021/06/12 11:46:24;;;;;;;5.50;3.30;;;28.90;88.90;;;;;;5008481;28;20073;-83
2021/06/12 11:48:51;;;;;;;4.43;3.10;;;28.90;84.00;;;;;;5008551;28;20479;-83
2021/06/12 11:51:20;;;;;;;3.75;3.45;;;28.80;86.60;;;;;;5008662;28;20068;-83
2021/06/12 11:54:18;;;;;;;6.05;2.90;;;28.50;86.80;;;;;;5012324;28;20034;-78
2021/06/12 11:56:54;;;;;;;6.60;3.10;;;28.50;86.90;;;;;;4994375;28;20436;-77
2021/06/12 11:59:30;;;;;;;4.80;3.20;;;28.50;90.00;;;;;;4993797;28;20348;-78
2021/06/12 12:02:03;;;;;;;6.28;2.90;;;28.70;88.10;;;;;;5008794;28;20089;-78
2021/06/12 12:04:39;;;;;;;8.82;3.55;;;28.80;84.20;;;;;;4993924;28;20489;-77
2021/06/12 12:07:07;;;;;;;4.07;2.75;;;28.80;81.40;;;;;;4993971;28;20026;-77
2021/06/12 12:09:35;;;;;;;6.95;3.10;;;28.70;81.10;;;;;;4993821;28;20459;-76
2021/06/12 12:12:06;;;;;;;7.40;3.33;;;28.50;84.80;;;;;;4993935;28;20036;-78
2021/06/12 12:14:37;;;;;;;5.45;3.00;;;28.90;85.80;;;;;;4997870;28;20026;-78
2021/06/12 12:17:05;;;;;;;4.32;3.08;;;29.20;84.50;;;;;;4997738;28;20472;-78
2021/06/12 12:19:31;;;;;;;3.55;2.78;;;29.40;82.20;;;;;;5012660;28;20038;-78
2021/06/12 12:21:59;;;;;;;5.63;3.03;;;29.60;80.60;;;;;;4997552;28;20030;-77
2021/06/12 12:24:28;;;;;;;6.70;3.15;;;29.50;80.60;;;;;;4997692;28;20101;-77
2021/06/12 12:27:08;;;;;;;3.25;2.83;;;29.30;81.70;;;;;;4997719;28;20105;-78
2021/06/12 12:29:39;;;;;;;10.88;3.30;;;29.40;80.80;;;;;;4997888;28;20026;-79
2021/06/12 12:32:05;;;;;;;4.85;3.00;;;29.60;78.90;;;;;;4997418;28;20062;-78
2021/06/12 12:34:32;;;;;;;4.50;3.20;;;29.70;78.20;;;;;;4997314;28;20034;-78
2021/06/12 12:36:58;;;;;;;7.68;3.33;;;29.70;80.70;;;;;;4997306;28;20072;-77
2021/06/12 12:39:34;;;;;;;6.13;3.15;;;29.70;77.40;;;;;;5012323;28;20050;-77
2021/06/12 12:42:00;;;;;;;4.70;3.13;;;29.40;77.50;;;;;;4997667;28;20077;-78
2021/06/12 12:44:26;;;;;;;5.05;3.35;;;29.50;77.60;;;;;;4997026;28;20074;-77
2021/06/12 12:46:54;;;;;;;7.80;3.10;;;29.60;78.70;;;;;;4997359;28;20481;-78
2021/06/12 12:49:29;;;;;;;4.75;3.22;;;29.30;79.60;;;;;;5012293;28;20366;-77
2021/06/12 12:51:57;;;;;;;4.65;3.10;;;28.90;79.00;;;;;;4997320;28;20475;-77